الصفحة الرئيسية
METAR-TAF:

METAR-TAF

مطار :

Telfer, أستراليا

دائرة عرض: 21-42-54S, خط طول: 122-13-43E, ارتفاع: 296 متر

مراقبة الطقس الحالي

تاريخ ووقت الإصدار 1ساعة و 4 دقيقة قبل الساعة 16:00UTC
ريح 10 عقدة من الجنوب الشرقي
درجة الحرارة 21°درجة مئوية
الرطوبة 25%
ضغط 1017 hPa
الرؤية 10 كم أو أكثر

METAR: YTEF 221600Z AUTO 14010KT 9999 // NCD 21/00 Q1017

زمن: 01:04 (17:04 UTC)


TAF: مفقودة

أرصاد الطقس والتوقعات من أكثر من 4000 مطار (تقارير الطقس للمطار METAR والتنبؤ بالطقس بالمطارTAF).

المحطات المتاحة هي النقط الصفراء والحمراء على الخريطة.

حرك المؤشر فوق النقطة لمعرفة اسم المحطة.

ثم انقر لمعرفة أرصاد وتوقعات الطقس.

لتغيير الخارطة: اضغط على الأزرار الخضراء مع رمز الصليب الأسود للتكبير. على الزر الأخضر مع شرطة للتصغير، أو على الأسهم الخضراء للخرائط المجاورة.


METAR-TAF: